Time;durP1;ratioP1;P1;durP2;ratioP2;P2;SDS_P1;SDS_P2;PMS_P1;PMS_P2;Temp;Humidity;BMP_temperature;BMP_pressure;BME280_temperature;BME280_humidity;BME280_pressure;Samples;Min_cycle;Max_cycle;Signal;HPM_P1;HPM_P2
2021/03/17 00:02:39;;;;;;;26.42;10.90;;;;;;;1.95;79.58;99608.42;1750386;82;21443;-45
2021/03/17 00:05:33;;;;;;;31.40;11.22;;;;;;;1.99;79.55;99607.98;1750488;82;21031;-43
2021/03/17 00:08:22;;;;;;;31.87;11.03;;;;;;;2.01;79.55;99610.12;1750453;82;21082;-42
2021/03/17 00:11:09;;;;;;;28.85;10.90;;;;;;;1.99;79.54;99599.92;1750401;82;21011;-43
2021/03/17 00:13:57;;;;;;;27.75;11.65;;;;;;;1.98;79.63;99600.77;1750503;82;20987;-44
2021/03/17 00:16:44;;;;;;;29.87;11.10;;;;;;;2.03;79.46;99596.09;1750415;82;21385;-43
2021/03/17 00:19:31;;;;;;;29.48;11.05;;;;;;;2.03;79.48;99589.71;1750409;82;21063;-43
2021/03/17 00:22:18;;;;;;;32.17;11.78;;;;;;;2.03;79.46;99593.13;1750357;82;21015;-42
2021/03/17 00:25:06;;;;;;;41.42;11.38;;;;;;;2.04;79.59;99590.14;1746065;82;21064;-44
2021/03/17 00:27:53;;;;;;;32.38;11.38;;;;;;;2.01;79.56;99591.84;1740115;82;21082;-45
2021/03/17 00:30:39;;;;;;;;;;;;;;;2.06;79.42;99577.81;1742661;82;21368;-43
2021/03/17 00:33:26;;;;;;;29.27;11.10;;;;;;;2.04;79.52;99580.80;1704615;84;20139;-44
2021/03/17 00:36:13;;;;;;;30.60;10.43;;;;;;;2.05;79.57;99577.80;1740075;82;21130;-45
2021/03/17 00:38:59;;;;;;;;;;;;;;;2.04;79.64;99583.34;1742669;82;20944;-43
2021/03/17 00:41:45;;;;;;;28.60;10.60;;;;;;;2.06;79.64;99582.05;1704757;84;20119;-42
2021/03/17 00:44:33;;;;;;;39.73;10.10;;;;;;;2.05;79.63;99574.84;1740098;82;21991;-43
2021/03/17 00:47:19;;;;;;;33.65;10.63;;;;;;;2.04;79.79;99574.41;1740161;82;21056;-43
2021/03/17 00:49:47;;;;;;;32.20;11.10;;;;;;;2.05;79.81;99568.45;1740038;82;20944;-43
2021/03/17 00:52:15;;;;;;;36.20;13.40;;;;;;;2.07;79.80;99566.75;1740053;82;21008;-43
2021/03/17 00:55:02;;;;;;;35.30;12.47;;;;;;;2.11;79.63;99574.84;1740076;81;21627;-43
2021/03/17 00:57:32;;;;;;;32.40;11.48;;;;;;;2.12;79.61;99562.50;1739478;81;21388;-43
2021/03/17 01:00:00;;;;;;;37.55;11.12;;;;;;;2.12;79.78;99560.36;1740032;82;20967;-42
2021/03/17 01:02:28;;;;;;;24.30;10.88;;;;;;;2.16;79.58;99562.09;1740143;82;21043;-42
2021/03/17 01:04:56;;;;;;;35.23;11.40;;;;;;;2.13;79.72;99563.34;1740096;81;21000;-43
2021/03/17 01:07:24;;;;;;;29.18;10.95;;;;;;;2.15;79.60;99561.67;1740009;81;20995;-42
2021/03/17 01:09:52;;;;;;;33.05;10.65;;;;;;;2.11;79.74;99565.04;1739990;81;21218;-43
2021/03/17 01:12:19;;;;;;;30.25;10.25;;;;;;;2.09;79.83;99552.28;1739985;82;21027;-42
2021/03/17 01:14:48;;;;;;;25.15;10.48;;;;;;;2.10;79.88;99551.44;1740043;82;20913;-44
2021/03/17 01:17:16;;;;;;;34.63;11.00;;;;;;;2.09;79.99;99561.22;1739990;82;21087;-44
2021/03/17 01:19:44;;;;;;;38.92;10.80;;;;;;;2.09;79.93;99556.12;1740041;82;20909;-42
2021/03/17 01:22:11;;;;;;;35.38;9.80;;;;;;;2.08;80.05;99562.48;1740005;82;21377;-42
2021/03/17 01:24:39;;;;;;;31.33;11.00;;;;;;;2.07;80.04;99555.27;1739939;81;21090;-44
2021/03/17 01:27:08;;;;;;;28.15;11.20;;;;;;;2.07;80.22;99560.78;1740059;81;20925;-43
2021/03/17 01:29:35;;;;;;;34.83;10.68;;;;;;;2.06;80.23;99558.67;1739970;82;21000;-44
2021/03/17 01:32:05;;;;;;;40.23;11.45;;;;;;;2.03;80.32;99554.84;1740066;81;21011;-42
2021/03/17 01:34:32;;;;;;;34.53;10.45;;;;;;;2.02;80.41;99559.48;1740122;82;21616;-44
2021/03/17 01:37:00;;;;;;;24.35;11.10;;;;;;;2.01;80.60;99561.20;1739965;82;20960;-42
2021/03/17 01:39:29;;;;;;;31.75;11.20;;;;;;;2.04;80.76;99556.54;1740001;82;20960;-44
2021/03/17 01:41:56;;;;;;;30.77;11.03;;;;;;;2.01;81.29;99561.61;1740072;82;21051;-43
2021/03/17 01:44:24;;;;;;;31.62;11.80;;;;;;;1.96;82.14;99562.90;1740086;82;21039;-43
2021/03/17 01:46:53;;;;;;;29.98;10.90;;;;;;;1.92;82.97;99562.47;1740018;82;21079;-42
2021/03/17 01:49:21;;;;;;;32.93;11.43;;;;;;;1.84;83.77;99562.44;1739972;81;21310;-42
2021/03/17 01:51:48;;;;;;;38.83;11.83;;;;;;;1.75;84.46;99559.00;1739971;82;21031;-44
2021/03/17 01:54:16;;;;;;;36.63;13.55;;;;;;;1.66;85.06;99551.75;1739960;81;21398;-43
2021/03/17 01:56:44;;;;;;;30.48;11.73;;;;;;;1.62;85.56;99562.77;1740040;82;21044;-43
2021/03/17 01:59:12;;;;;;;28.57;11.53;;;;;;;1.56;86.10;99545.76;1740035;82;21366;-43
2021/03/17 02:01:40;;;;;;;28.62;11.12;;;;;;;1.52;86.58;99563.59;1739925;82;20956;-43
2021/03/17 02:04:09;;;;;;;30.52;12.73;;;;;;;1.49;86.96;99561.03;1740052;81;21060;-44
2021/03/17 02:06:37;;;;;;;30.80;12.88;;;;;;;1.49;87.31;99561.03;1740057;82;21608;-43
2021/03/17 02:09:04;;;;;;;31.57;11.78;;;;;;;1.42;87.64;99553.77;1740055;82;21020;-43
2021/03/17 02:11:32;;;;;;;38.95;11.97;;;;;;;1.39;87.93;99559.72;1739926;82;21204;-43
2021/03/17 02:14:26;;;;;;;29.98;11.38;;;;;;;1.35;88.28;99560.53;1739941;82;20968;-44
2021/03/17 02:17:00;;;;;;;27.93;11.38;;;;;;;1.32;88.53;99555.86;1740106;82;21047;-44
2021/03/17 02:19:56;;;;;;;40.48;12.88;;;;;;;1.31;88.79;99551.59;1739930;82;21219;-45
2021/03/17 02:23:00;;;;;;;29.80;12.53;;;;;;;1.28;89.11;99551.15;1715980;82;21024;-44
2021/03/17 02:25:59;;;;;;;28.00;12.18;;;;;;;1.27;89.37;99545.21;1742773;81;21387;-45
2021/03/17 02:28:32;;;;;;;27.45;12.00;;;;;;;1.30;89.62;99550.73;1750502;81;20940;-43
2021/03/17 02:31:36;;;;;;;32.15;12.40;;;;;;;1.28;89.83;99546.05;1750844;81;20963;-44
2021/03/17 02:34:08;;;;;;;36.08;13.18;;;;;;;1.25;90.10;99545.59;1750776;81;21022;-44
2021/03/17 02:36:56;;;;;;;29.32;12.53;;;;;;;1.24;90.29;99544.33;1751195;82;20917;-44
2021/03/17 02:39:36;;;;;;;36.35;14.58;;;;;;;1.24;90.36;99544.33;1751186;82;21338;-43
2021/03/17 02:42:44;;;;;;;34.23;13.65;;;;;;;1.24;90.55;99537.95;1751112;82;20988;-43
2021/03/17 02:45:19;;;;;;;33.40;13.38;;;;;;;1.23;90.74;99536.25;1751172;82;21027;-44
2021/03/17 02:48:14;;;;;;;28.87;13.28;;;;;;;1.25;90.90;99537.11;1750934;81;21487;-44
2021/03/17 02:50:45;;;;;;;30.95;13.45;;;;;;;1.26;91.02;99533.72;1751244;81;21039;-44
2021/03/17 02:53:14;;;;;;;39.85;14.23;;;;;;;1.24;91.22;99536.69;1751180;81;21556;-44
2021/03/17 02:55:49;;;;;;;36.30;14.20;;;;;;;1.25;91.33;99535.84;1751154;82;20974;-44
2021/03/17 02:58:17;;;;;;;31.35;13.18;;;;;;;1.27;91.48;99530.31;1751368;81;21050;-44
2021/03/17 03:00:46;;;;;;;36.98;14.47;;;;;;;1.27;91.55;99527.36;1751190;81;21632;-43
2021/03/17 03:03:14;;;;;;;34.85;13.18;;;;;;;1.27;91.61;99529.05;1751160;82;21023;-44
2021/03/17 03:05:42;;;;;;;30.62;13.32;;;;;;;1.27;91.76;99535.42;1751128;82;21371;-44
2021/03/17 03:08:10;;;;;;;39.20;14.80;;;;;;;1.28;91.82;99533.30;1751015;82;20964;-44
2021/03/17 03:10:39;;;;;;;31.33;14.63;;;;;;;1.31;91.87;99529.92;1751045;82;20995;-44
2021/03/17 03:13:07;;;;;;;31.87;14.58;;;;;;;1.31;91.91;99526.09;1751063;82;21105;-43
2021/03/17 03:15:35;;;;;;;32.40;15.25;;;;;;;1.32;91.94;99531.62;1751101;81;20967;-44
2021/03/17 03:18:04;;;;;;;32.10;14.98;;;;;;;1.30;92.07;99527.78;1751047;82;21112;-43
2021/03/17 03:20:34;;;;;;;35.38;14.28;;;;;;;1.32;92.04;99527.36;1751072;81;20952;-44
2021/03/17 03:23:02;;;;;;;36.75;13.83;;;;;;;1.32;92.09;99519.71;1734336;82;21055;-44
2021/03/17 03:25:32;;;;;;;30.35;14.43;;;;;;;1.32;92.19;99525.25;1749348;81;21166;-44
2021/03/17 03:28:10;;;;;;;29.23;13.70;;;;;;;1.34;92.20;99528.66;1739968;81;20996;-44
2021/03/17 03:30:29;;;;;;;39.95;14.18;;;;;;;1.33;92.25;99522.69;1739291;81;22304;-44
2021/03/17 03:32:57;;;;;;;33.35;15.15;;;;;;;1.34;92.27;99519.30;1739922;82;21067;-44
2021/03/17 03:35:24;;;;;;;33.80;15.30;;;;;;;1.36;92.27;99511.22;1739992;81;21596;-43
2021/03/17 03:37:52;;;;;;;46.77;16.07;;;;;;;1.36;92.31;99523.97;1739941;82;21059;-44
2021/03/17 03:41:20;;;;;;;39.83;16.00;;;;;;;1.42;92.34;99512.95;1776930;79;22856;-43
2021/03/17 03:43:48;;;;;;;30.80;14.28;;;;;;;1.38;92.32;99517.62;1749459;82;20939;-43
2021/03/17 03:46:17;;;;;;;40.55;16.90;;;;;;;1.35;92.37;99522.71;1745960;82;21373;-44
2021/03/17 03:48:47;;;;;;;41.05;16.70;;;;;;;1.36;92.46;99520.15;1749298;81;20962;-44
2021/03/17 03:51:19;;;;;;;35.88;15.30;;;;;;;1.35;92.47;99523.98;1749468;82;20939;-43
2021/03/17 03:54:10;;;;;;;40.40;17.15;;;;;;;1.36;92.51;99519.31;1749432;82;21599;-43
2021/03/17 03:56:46;;;;;;;36.05;16.75;;;;;;;1.33;92.57;99523.97;1749443;82;20949;-43
2021/03/17 03:59:24;;;;;;;37.00;15.63;;;;;;;1.33;92.58;99521.41;1749338;82;21143;-43
2021/03/17 04:01:58;;;;;;;41.50;16.80;;;;;;;1.33;92.63;99527.79;1749107;82;20967;-44
2021/03/17 04:04:30;;;;;;;39.80;15.98;;;;;;;1.35;92.64;99514.63;1749390;82;21002;-44
2021/03/17 04:07:03;;;;;;;31.90;14.55;;;;;;;1.34;92.63;99525.67;1749379;82;20896;-44
2021/03/17 04:09:35;;;;;;;34.90;15.38;;;;;;;1.36;92.64;99528.23;1749431;81;20935;-44
2021/03/17 04:12:04;;;;;;;39.98;16.32;;;;;;;1.35;92.71;99528.64;1749415;82;22250;-44
2021/03/17 04:14:33;;;;;;;30.37;14.83;;;;;;;1.36;92.74;99508.67;1749389;82;21093;-44
2021/03/17 04:17:09;;;;;;;41.28;15.65;;;;;;;1.38;92.74;99529.09;1720496;82;21034;-44
2021/03/17 04:19:39;;;;;;;30.92;14.87;;;;;;;1.39;92.78;99526.56;1749510;82;21011;-44
2021/03/17 04:22:07;;;;;;;36.38;16.40;;;;;;;1.39;92.77;99526.97;1733610;81;21047;-44
2021/03/17 04:24:34;;;;;;;36.80;16.30;;;;;;;1.41;92.77;99523.59;1691386;83;21575;-45
2021/03/17 04:27:02;;;;;;;37.23;15.95;;;;;;;1.41;92.76;99521.05;1691262;83;21507;-44
2021/03/17 04:29:30;;;;;;;41.25;15.75;;;;;;;1.41;92.74;99529.97;1719640;83;20994;-44
2021/03/17 04:31:58;;;;;;;32.78;16.65;;;;;;;1.42;92.70;99531.67;1719680;83;21143;-45
2021/03/17 04:34:26;;;;;;;52.08;18.10;;;;;;;1.41;92.74;99519.77;1691637;83;20983;-45
2021/03/17 04:36:54;;;;;;;33.42;15.98;;;;;;;1.43;92.73;99525.73;1668491;83;21217;-45
2021/03/17 04:39:22;;;;;;;38.17;15.70;;;;;;;1.42;92.74;99521.47;1719467;83;21705;-44
2021/03/17 04:41:51;;;;;;;36.38;16.05;;;;;;;1.41;92.70;99526.14;1720326;83;21066;-44
2021/03/17 04:44:18;;;;;;;54.20;19.85;;;;;;;1.45;92.72;99517.23;1720276;83;21069;-44
2021/03/17 04:46:46;;;;;;;31.87;16.70;;;;;;;1.45;92.65;99525.72;1720267;83;21007;-44
2021/03/17 04:49:14;;;;;;;44.10;16.25;;;;;;;1.43;92.63;99523.59;1720331;83;21423;-44
2021/03/17 04:51:44;;;;;;;41.50;16.48;;;;;;;1.41;92.66;99522.32;1719877;83;21109;-44
2021/03/17 04:54:13;;;;;;;38.25;17.12;;;;;;;1.42;92.67;99516.38;1719780;83;20955;-43
2021/03/17 04:56:43;;;;;;;51.28;17.20;;;;;;;1.42;92.73;99526.58;1693508;83;21484;-43
2021/03/17 04:59:17;;;;;;;34.55;15.85;;;;;;;1.43;92.71;99523.59;1719757;83;21639;-44
2021/03/17 05:01:44;;;;;;;33.73;16.82;;;;;;;1.41;92.75;99529.11;1719759;83;21153;-44
2021/03/17 05:04:12;;;;;;;48.10;19.60;;;;;;;1.41;92.77;99521.05;1719666;83;21022;-43
2021/03/17 05:06:43;;;;;;;48.85;17.87;;;;;;;1.42;92.58;99527.85;1719771;83;20922;-43
2021/03/17 05:09:14;;;;;;;43.87;17.23;;;;;;;1.40;92.64;99528.67;1693657;83;21057;-43
2021/03/17 05:11:42;;;;;;;41.50;16.50;;;;;;;1.39;92.61;99528.25;1719774;83;21006;-43
2021/03/17 05:14:10;;;;;;;36.42;15.78;;;;;;;1.38;92.66;99531.64;1719780;83;21215;-43
2021/03/17 05:16:38;;;;;;;41.80;16.57;;;;;;;1.34;92.68;99528.22;1693348;83;20919;-43
2021/03/17 05:19:06;;;;;;;45.85;18.30;;;;;;;1.37;92.71;99524.41;1719749;83;20951;-42
2021/03/17 05:21:34;;;;;;;35.68;16.73;;;;;;;1.35;92.78;99528.64;1719693;82;21018;-43
2021/03/17 05:24:02;;;;;;;38.28;16.62;;;;;;;1.36;92.83;99522.70;1719770;82;21078;-44
2021/03/17 05:26:34;;;;;;;43.63;16.77;;;;;;;1.36;92.92;99531.62;1719770;83;21468;-43
2021/03/17 05:29:01;;;;;;;47.00;17.00;;;;;;;1.35;92.93;99533.75;1719688;83;20966;-43
2021/03/17 05:31:29;;;;;;;41.10;17.92;;;;;;;1.39;92.93;99529.52;1719733;83;20943;-44
2021/03/17 05:33:57;;;;;;;40.65;16.95;;;;;;;1.37;92.86;99529.50;1693463;83;21042;-45
2021/03/17 05:36:25;;;;;;;43.55;17.87;;;;;;;1.35;92.85;99528.64;1719845;83;21011;-43
2021/03/17 05:38:53;;;;;;;42.40;16.27;;;;;;;1.35;92.89;99534.19;1719757;83;21376;-43
2021/03/17 05:41:21;;;;;;;37.45;15.85;;;;;;;1.36;92.92;99534.62;1719559;83;21157;-43
2021/03/17 05:43:48;;;;;;;38.63;16.87;;;;;;;1.38;92.98;99526.55;1719732;83;20967;-43
2021/03/17 05:46:16;;;;;;;45.55;17.30;;;;;;;1.38;92.98;99531.20;1719610;82;21031;-43
2021/03/17 05:48:44;;;;;;;38.70;16.75;;;;;;;1.38;93.06;99535.03;1719765;83;21122;-44
2021/03/17 05:51:12;;;;;;;40.92;16.05;;;;;;;1.40;93.07;99531.23;1719783;83;21362;-44
2021/03/17 05:53:39;;;;;;;35.98;16.55;;;;;;;1.43;93.15;99537.61;1648358;83;21015;-44
2021/03/17 05:56:07;;;;;;;46.30;16.85;;;;;;;1.46;93.19;99538.06;1719707;83;21018;-44
2021/03/17 05:58:35;;;;;;;37.75;16.35;;;;;;;1.46;93.22;99536.78;1719653;83;20947;-43
2021/03/17 06:01:02;;;;;;;46.00;16.95;;;;;;;1.46;93.27;99547.83;1719734;82;21109;-44
2021/03/17 06:03:35;;;;;;;30.95;15.30;;;;;;;1.49;93.27;99544.01;1719724;83;21380;-44
2021/03/17 06:06:06;;;;;;;30.00;14.60;;;;;;;1.52;93.26;99544.05;1719691;83;21015;-44
2021/03/17 06:08:43;;;;;;;34.80;15.05;;;;;;;1.52;93.19;99536.80;1719671;83;20998;-45
2021/03/17 06:11:13;;;;;;;36.28;15.45;;;;;;;1.56;93.22;99530.86;1719810;83;20987;-45
2021/03/17 06:13:49;;;;;;;30.72;15.32;;;;;;;1.55;93.13;99552.12;1719798;83;21682;-44
2021/03/17 06:16:21;;;;;;;30.88;14.53;;;;;;;1.57;93.14;99548.73;1719776;83;22079;-45
2021/03/17 06:18:55;;;;;;;36.48;15.78;;;;;;;1.58;93.18;99550.85;1719725;83;21077;-44
2021/03/17 06:21:24;;;;;;;38.50;15.70;;;;;;;1.63;93.16;99547.05;1719704;82;21070;-44
2021/03/17 06:23:53;;;;;;;29.87;16.15;;;;;;;1.61;93.13;99545.75;1719670;83;21042;-45
2021/03/17 06:26:20;;;;;;;36.88;15.68;;;;;;;1.59;93.13;99551.28;1719692;83;20958;-44
2021/03/17 06:28:50;;;;;;;37.65;15.72;;;;;;;1.63;93.16;99544.06;1719685;83;21384;-44
2021/03/17 06:31:20;;;;;;;36.10;15.78;;;;;;;1.63;93.19;99544.50;1719710;83;20963;-44
2021/03/17 06:33:52;;;;;;;33.38;15.15;;;;;;;1.65;93.13;99545.36;1719665;83;21054;-44
2021/03/17 06:36:22;;;;;;;27.75;14.53;;;;;;;1.64;93.16;99541.97;1692915;83;20967;-44
2021/03/17 06:39:10;;;;;;;43.73;16.32;;;;;;;1.64;93.16;99543.24;1719689;83;21038;-44
2021/03/17 06:41:49;;;;;;;44.42;14.30;;;;;;;1.67;93.13;99543.66;1719589;83;21203;-43
2021/03/17 06:44:28;;;;;;;28.10;12.80;;;;;;;1.65;93.11;99544.95;1719623;83;21014;-43
2021/03/17 06:47:20;;;;;;;26.75;12.68;;;;;;;1.65;93.11;99549.19;1719730;83;20943;-44
2021/03/17 06:49:53;;;;;;;30.68;13.90;;;;;;;1.66;93.09;99546.65;1719712;83;21647;-43
2021/03/17 06:52:31;;;;;;;33.40;14.45;;;;;;;1.67;93.15;99544.53;1719667;83;20999;-44
2021/03/17 06:55:13;;;;;;;24.72;13.40;;;;;;;1.65;93.15;99547.50;1719680;83;21444;-45
2021/03/17 06:57:50;;;;;;;25.77;13.32;;;;;;;1.67;93.22;99549.63;1719657;83;20959;-45
2021/03/17 07:00:34;;;;;;;27.65;13.88;;;;;;;1.70;93.24;99550.91;1719290;83;20958;-44
2021/03/17 07:03:12;;;;;;;38.35;13.68;;;;;;;1.75;93.25;99546.24;1719633;83;21018;-44
2021/03/17 07:05:46;;;;;;;26.33;14.55;;;;;;;1.79;93.28;99544.13;1719703;83;20938;-44
2021/03/17 07:08:30;;;;;;;32.10;13.58;;;;;;;1.79;93.25;99546.67;1719687;83;21344;-44
2021/03/17 07:11:00;;;;;;;33.42;15.60;;;;;;;1.81;93.21;99539.88;1718981;83;21026;-45
2021/03/17 07:13:30;;;;;;;39.48;15.20;;;;;;;1.83;93.05;99551.80;1719780;83;21615;-44
2021/03/17 07:15:59;;;;;;;32.25;15.00;;;;;;;1.85;93.07;99551.79;1719601;83;21046;-43
2021/03/17 07:18:30;;;;;;;28.30;14.45;;;;;;;1.90;93.08;99546.30;1719775;83;21522;-43
2021/03/17 07:21:04;;;;;;;29.40;14.43;;;;;;;1.89;92.91;99538.18;1719757;82;21336;-44
2021/03/17 07:23:42;;;;;;;32.85;14.45;;;;;;;1.87;92.84;99547.54;1719561;83;21074;-44
2021/03/17 07:26:17;;;;;;;27.93;14.55;;;;;;;1.93;92.86;99546.30;1719268;83;21010;-44
2021/03/17 07:28:52;;;;;;;32.58;14.28;;;;;;;1.95;92.91;99539.50;1719692;83;21195;-45
2021/03/17 07:31:29;;;;;;;42.33;16.12;;;;;;;1.95;92.98;99542.45;1719955;83;20967;-45
2021/03/17 07:34:18;;;;;;;37.15;17.25;;;;;;;2.01;93.01;99550.13;1719673;82;21149;-45
2021/03/17 07:37:00;;;;;;;29.60;15.90;;;;;;;2.04;93.03;99545.46;1719619;83;20968;-43
2021/03/17 07:39:34;;;;;;;35.90;15.32;;;;;;;2.00;93.05;99547.14;1719613;83;20923;-44
2021/03/17 07:42:05;;;;;;;29.92;15.32;;;;;;;2.03;93.10;99546.31;1718668;83;21216;-45
2021/03/17 07:44:34;;;;;;;37.23;15.75;;;;;;;2.08;93.12;99545.89;1693064;83;21066;-46
2021/03/17 07:47:04;;;;;;;37.98;15.83;;;;;;;2.06;93.12;99553.56;1719661;83;21206;-44
2021/03/17 07:49:35;;;;;;;41.18;16.05;;;;;;;2.09;93.19;99545.04;1717258;83;21065;-44
2021/03/17 07:52:04;;;;;;;26.73;15.10;;;;;;;2.12;93.23;99550.14;1719649;83;21058;-44
2021/03/17 07:54:34;;;;;;;39.63;16.87;;;;;;;2.15;93.25;99548.90;1719586;83;20964;-46
2021/03/17 07:57:06;;;;;;;40.45;18.48;;;;;;;2.16;93.29;99548.05;1719671;83;21528;-44
2021/03/17 07:59:34;;;;;;;34.45;15.70;;;;;;;2.19;93.31;99549.73;1719728;83;22267;-45
2021/03/17 08:02:02;;;;;;;35.68;15.72;;;;;;;2.22;93.28;99546.77;1719616;83;21026;-44
2021/03/17 08:04:33;;;;;;;27.77;14.60;;;;;;;2.24;93.27;99553.14;1719665;83;20903;-46
2021/03/17 08:07:03;;;;;;;30.90;15.75;;;;;;;2.23;93.25;99548.48;1719613;83;20943;-44
2021/03/17 08:09:32;;;;;;;31.37;14.78;;;;;;;2.25;93.28;99553.16;1719715;83;20947;-44
2021/03/17 08:12:04;;;;;;;33.75;16.52;;;;;;;2.30;93.26;99559.12;1719681;83;21128;-45
2021/03/17 08:14:32;;;;;;;60.58;16.23;;;;;;;2.27;93.09;99554.42;1719181;82;20959;-45
2021/03/17 08:17:00;;;;;;;31.97;15.43;;;;;;;2.31;93.14;99547.22;1670802;83;20975;-43
2021/03/17 08:19:29;;;;;;;33.70;14.90;;;;;;;2.30;93.13;99542.95;1719656;83;21319;-43
2021/03/17 08:22:01;;;;;;;34.55;14.80;;;;;;;2.32;93.15;99551.87;1719638;82;21012;-43
2021/03/17 08:24:38;;;;;;;33.23;15.05;;;;;;;2.33;93.13;99548.47;1719622;83;21215;-43
2021/03/17 08:27:17;;;;;;;29.15;14.18;;;;;;;2.35;93.12;99554.02;1719692;83;20966;-43
2021/03/17 08:30:05;;;;;;;29.27;14.75;;;;;;;2.36;93.14;99549.34;1719783;83;21014;-44
2021/03/17 08:32:58;;;;;;;31.62;15.05;;;;;;;2.36;92.97;99555.73;1719727;82;21030;-44
2021/03/17 08:36:04;;;;;;;31.40;15.70;;;;;;;2.36;92.96;99554.45;1718803;83;21026;-44
2021/03/17 08:38:56;;;;;;;30.80;14.93;;;;;;;2.40;92.93;99545.94;1719771;83;22789;-45
2021/03/17 08:41:46;;;;;;;24.67;15.10;;;;;;;2.36;92.77;99549.75;1719574;83;21487;-45
2021/03/17 08:44:17;;;;;;;30.88;16.70;;;;;;;2.36;92.73;99548.47;1719779;82;21042;-45
2021/03/17 08:46:46;;;;;;;31.15;14.75;;;;;;;2.36;92.75;99542.95;1719730;83;21015;-43
2021/03/17 08:49:27;;;;;;;34.65;15.95;;;;;;;2.38;92.75;99550.60;1719782;83;21105;-46
2021/03/17 08:52:02;;;;;;;30.02;15.28;;;;;;;2.37;92.84;99548.48;1719786;83;21219;-45
2021/03/17 08:54:34;;;;;;;;;;;;;;;2.41;92.91;99552.74;1722321;82;20931;-45
2021/03/17 08:57:08;;;;;;;35.52;16.15;;;;;;;2.44;93.01;99546.80;1719793;82;20496;-45
2021/03/17 08:59:45;;;;;;;31.00;15.65;;;;;;;2.44;93.06;99553.18;1719776;83;20920;-45
2021/03/17 09:02:30;;;;;;;24.47;15.10;;;;;;;2.47;93.07;99550.63;1719731;82;21026;-45
2021/03/17 09:05:06;;;;;;;21.82;13.15;;;;;;;2.46;93.07;99546.78;1719877;83;22277;-46
2021/03/17 09:07:35;;;;;;;26.57;13.62;;;;;;;2.48;93.12;99545.08;1719839;83;21011;-44
2021/03/17 09:10:14;;;;;;;28.98;13.70;;;;;;;2.52;93.17;99546.36;1717223;83;20963;-45
2021/03/17 09:12:46;;;;;;;24.20;12.73;;;;;;;2.54;93.14;99552.32;1719705;83;21038;-43
2021/03/17 09:15:17;;;;;;;25.45;13.78;;;;;;;2.58;92.96;99548.08;1719771;82;21038;-44
2021/03/17 09:17:56;;;;;;;29.20;12.75;;;;;;;2.58;92.99;99551.47;1719798;83;22261;-44
2021/03/17 09:20:33;;;;;;;26.30;12.93;;;;;;;2.64;92.99;99544.23;1719695;83;21062;-44
2021/03/17 09:23:05;;;;;;;26.97;11.85;;;;;;;2.63;92.91;99554.03;1719685;82;20955;-43
2021/03/17 09:25:46;;;;;;;22.93;11.00;;;;;;;2.66;92.96;99554.02;1719667;83;20959;-44
2021/03/17 09:28:27;;;;;;;21.07;11.30;;;;;;;2.65;92.78;99562.95;1719802;83;21599;-44
2021/03/17 09:31:09;;;;;;;26.70;12.10;;;;;;;2.62;92.80;99564.23;1719820;83;22839;-43
2021/03/17 09:33:39;;;;;;;19.75;11.25;;;;;;;2.63;92.82;99565.94;1719687;83;20979;-43
2021/03/17 09:36:14;;;;;;;20.08;10.43;;;;;;;2.62;92.71;99565.52;1719667;83;20948;-43
2021/03/17 09:38:49;;;;;;;26.93;11.50;;;;;;;2.60;92.84;99569.36;1719257;83;21066;-45
2021/03/17 09:41:28;;;;;;;20.00;11.18;;;;;;;2.63;92.85;99566.80;1717803;82;21010;-44
2021/03/17 09:44:03;;;;;;;30.55;11.90;;;;;;;2.66;92.87;99565.97;1706227;83;21507;-45
2021/03/17 09:46:43;;;;;;;29.25;11.53;;;;;;;2.68;92.68;99556.59;1706145;84;20971;-46
2021/03/17 09:49:16;;;;;;;24.05;11.80;;;;;;;2.67;92.73;99568.95;1706152;84;21026;-45
2021/03/17 09:51:49;;;;;;;21.50;11.48;;;;;;;2.67;92.53;99570.22;1706153;84;20976;-44
2021/03/17 09:54:22;;;;;;;27.93;11.35;;;;;;;2.65;92.50;99574.05;1706328;84;21496;-45
2021/03/17 09:56:53;;;;;;;26.90;10.60;;;;;;;2.66;92.57;99571.91;1706275;84;21403;-44
2021/03/17 09:59:31;;;;;;;22.80;10.58;;;;;;;2.69;92.71;99581.30;1706133;82;21648;-44
2021/03/17 10:02:10;;;;;;;23.77;10.80;;;;;;;2.71;92.66;99579.59;1706217;84;21054;-44
2021/03/17 10:04:44;;;;;;;18.98;10.08;;;;;;;2.73;92.80;99581.27;1704532;82;20951;-43
2021/03/17 10:07:13;;;;;;;21.48;9.85;;;;;;;2.76;92.82;99574.04;1706259;83;21106;-45
2021/03/17 10:09:42;;;;;;;20.48;10.63;;;;;;;2.79;92.79;99576.59;1706186;83;22192;-45
2021/03/17 10:12:15;;;;;;;20.43;10.38;;;;;;;2.83;92.79;99569.34;1706081;84;20960;-45
2021/03/17 10:14:47;;;;;;;15.95;10.20;;;;;;;2.87;92.81;99572.31;1706168;83;21165;-44
2021/03/17 10:17:16;;;;;;;19.92;10.55;;;;;;;2.90;92.94;99573.16;1706199;84;21580;-45
2021/03/17 10:19:52;;;;;;;23.80;11.18;;;;;;;2.98;92.97;99580.42;1706270;83;21497;-45
2021/03/17 10:22:20;;;;;;;17.53;9.80;;;;;;;2.99;92.88;99582.95;1706336;82;21208;-45
2021/03/17 10:24:51;;;;;;;21.25;9.73;;;;;;;3.03;92.93;99572.31;1706168;84;21567;-45
2021/03/17 10:27:21;;;;;;;22.60;10.45;;;;;;;3.02;92.75;99582.11;1706178;84;20995;-46
2021/03/17 10:29:51;;;;;;;22.67;9.58;;;;;;;3.03;92.70;99585.09;1706129;84;21023;-45
2021/03/17 10:32:23;;;;;;;20.45;9.70;;;;;;;3.04;92.64;99580.41;1706219;84;21043;-45
2021/03/17 10:34:51;;;;;;;24.43;11.25;;;;;;;3.01;92.47;99582.97;1686520;84;21321;-45
2021/03/17 10:37:21;;;;;;;24.45;11.18;;;;;;;2.97;92.17;99580.00;1706214;84;21575;-42
2021/03/17 10:39:52;;;;;;;19.32;10.55;;;;;;;3.02;92.32;99582.11;1706173;84;20969;-43
2021/03/17 10:42:26;;;;;;;27.37;11.15;;;;;;;2.99;92.28;99583.40;1706020;83;21031;-42
2021/03/17 10:45:05;;;;;;;21.73;11.90;;;;;;;3.02;92.35;99583.39;1706216;84;21173;-43
2021/03/17 10:47:33;;;;;;;29.72;11.93;;;;;;;3.05;92.48;99575.71;1706163;84;21196;-43
2021/03/17 10:50:01;;;;;;;22.02;10.58;;;;;;;3.09;92.50;99579.97;1706161;84;21521;-42
2021/03/17 11:28:18;;;;;;;54.98;22.65;;;;;;;2.97;93.45;99561.66;1792404;78;22843;-44
2021/03/17 11:30:54;;;;;;;45.88;19.95;;;;;;;2.98;93.52;99562.52;1779722;80;20883;-43
2021/03/17 11:33:24;;;;;;;42.15;19.42;;;;;;;3.01;93.62;99565.07;1784870;80;21361;-44
2021/03/17 11:35:54;;;;;;;36.10;16.40;;;;;;;3.08;93.82;99562.08;1782506;80;21590;-44
2021/03/17 11:38:23;;;;;;;33.70;17.82;;;;;;;3.07;93.82;99569.33;1784122;79;21180;-43
2021/03/17 11:40:52;;;;;;;31.20;15.28;;;;;;;3.11;93.94;99579.97;1783695;80;21021;-45
2021/03/17 11:43:23;;;;;;;29.32;16.10;;;;;;;3.21;94.03;99566.74;1782249;79;21416;-45
2021/03/17 11:45:51;;;;;;;39.03;16.05;;;;;;;3.27;94.07;99562.88;1780240;80;22130;-44
2021/03/17 11:48:21;;;;;;;31.68;14.83;;;;;;;3.26;93.97;99570.13;1784913;80;20934;-45
2021/03/17 11:50:52;;;;;;;37.23;16.85;;;;;;;3.34;94.06;99572.68;1785872;80;21515;-42
2021/03/17 11:53:21;;;;;;;34.27;16.93;;;;;;;3.37;94.07;99572.66;1787368;80;20923;-45
2021/03/17 11:55:50;;;;;;;32.23;14.93;;;;;;;3.42;94.10;99575.64;1781452;80;20910;-43
2021/03/17 11:58:19;;;;;;;36.17;15.23;;;;;;;3.51;94.08;99575.17;1783583;80;21246;-44
2021/03/17 12:00:47;;;;;;;27.00;14.47;;;;;;;3.58;93.69;99570.45;1782678;80;21015;-43
2021/03/17 12:03:17;;;;;;;29.02;14.75;;;;;;;3.58;93.69;99570.45;1783570;80;20982;-44
2021/03/17 12:05:45;;;;;;;47.25;17.57;;;;;;;3.55;93.74;99574.30;1782457;80;20998;-43
2021/03/17 12:08:15;;;;;;;37.85;19.25;;;;;;;3.58;93.76;99566.61;1782162;80;21123;-43
2021/03/17 12:10:44;;;;;;;37.60;17.45;;;;;;;3.58;93.58;99560.21;1782616;80;21194;-44
2021/03/17 12:13:13;;;;;;;35.63;15.43;;;;;;;3.61;93.50;99564.03;1785646;80;21040;-43
2021/03/17 12:15:45;;;;;;;37.10;17.07;;;;;;;3.63;93.44;99563.59;1783088;80;21438;-43
2021/03/17 12:18:14;;;;;;;35.10;17.02;;;;;;;3.68;93.45;99564.86;1781314;80;21551;-44
2021/03/17 12:20:43;;;;;;;37.58;16.67;;;;;;;3.74;93.46;99564.83;1786283;79;21136;-44
2021/03/17 12:23:15;;;;;;;42.93;16.82;;;;;;;3.77;93.35;99561.42;1783141;80;21362;-44
2021/03/17 12:25:44;;;;;;;35.45;17.20;;;;;;;3.83;93.29;99558.82;1777903;80;21162;-44
2021/03/17 12:28:13;;;;;;;39.27;16.73;;;;;;;3.83;93.12;99559.69;1752304;81;21002;-43
2021/03/17 12:30:43;;;;;;;36.00;17.02;;;;;;;3.80;92.89;99551.16;1751604;81;21005;-44
2021/03/17 12:33:13;;;;;;;34.98;16.77;;;;;;;3.78;92.68;99560.11;1752051;81;21633;-45